createdAt,value
2018-06-25T00:00:40.423Z,11.10
2018-06-25T00:01:40.888Z,11.00
2018-06-25T00:02:40.677Z,11.00
2018-06-25T00:04:03.545Z,10.70
2018-06-25T00:05:04.244Z,10.70
2018-06-25T00:06:04.098Z,11.80
2018-06-25T00:07:04.738Z,10.60
2018-06-25T00:08:27.770Z,11.60
2018-06-25T00:09:28.555Z,11.20
2018-06-25T00:10:28.085Z,10.60
2018-06-25T00:11:29.276Z,10.90
2018-06-25T00:12:49.191Z,11.40
2018-06-25T00:13:49.911Z,10.80
2018-06-25T00:14:49.426Z,10.40
2018-06-25T00:15:50.019Z,11.10
2018-06-25T00:16:49.431Z,11.20
2018-06-25T00:17:49.722Z,10.70
2018-06-25T00:18:49.340Z,11.40
2018-06-25T00:20:32.380Z,11.00
2018-06-25T00:21:32.961Z,11.30
2018-06-25T00:22:32.286Z,11.10
2018-06-25T00:23:32.811Z,12.10
2018-06-25T00:24:33.346Z,11.80
2018-06-25T00:25:32.883Z,11.70
2018-06-25T00:26:32.926Z,11.20
2018-06-25T00:27:32.362Z,11.70
2018-06-25T00:28:32.934Z,11.70
2018-06-25T00:29:54.295Z,10.40
2018-06-25T00:30:54.868Z,12.50
2018-06-25T00:31:54.498Z,12.00
2018-06-25T00:33:17.424Z,12.00
2018-06-25T00:34:18.065Z,11.80
2018-06-25T00:35:17.540Z,13.30
2018-06-25T00:36:18.399Z,12.20
2018-06-25T00:37:17.737Z,11.00
2018-06-25T00:38:18.275Z,12.10
2018-06-25T00:39:17.825Z,12.30
2018-06-25T00:40:18.401Z,13.00
2018-06-25T00:41:18.259Z,12.70
2018-06-25T00:42:17.667Z,12.00
2018-06-25T00:43:18.267Z,12.80
2018-06-25T00:44:39.167Z,12.30
2018-06-25T00:45:39.727Z,12.80
2018-06-25T00:46:40.061Z,14.20
2018-06-25T00:47:39.382Z,13.90
2018-06-25T00:49:00.936Z,13.10
2018-06-25T00:50:01.401Z,13.10
2018-06-25T00:51:02.047Z,13.20
2018-06-25T00:52:01.470Z,13.30
2018-06-25T00:53:01.173Z,13.90
2018-06-25T00:54:44.643Z,13.70
2018-06-25T00:55:45.303Z,13.70
2018-06-25T00:56:44.709Z,14.10
2018-06-25T00:57:45.107Z,13.80
2018-06-25T00:58:44.562Z,13.30
2018-06-25T00:59:45.123Z,13.80
2018-06-25T01:00:44.818Z,13.30
2018-06-25T01:01:45.320Z,14.40
2018-06-25T01:02:44.712Z,13.60
2018-06-25T01:03:45.072Z,14.50
2018-06-25T01:04:44.959Z,13.30
2018-06-25T01:06:06.977Z,14.40
2018-06-25T01:07:07.375Z,14.60
2018-06-25T01:08:06.797Z,13.70
2018-06-25T01:09:07.326Z,14.00
2018-06-25T01:10:07.078Z,15.10
2018-06-25T01:11:08.169Z,14.40
2018-06-25T01:12:07.827Z,14.20
2018-06-25T01:13:07.214Z,13.90
2018-06-25T01:14:06.690Z,13.90
2018-06-25T01:15:49.552Z,14.10
2018-06-25T01:16:50.204Z,13.80
2018-06-25T01:17:49.730Z,13.50
2018-06-25T01:18:50.274Z,14.10
2018-06-25T01:19:50.061Z,13.30
2018-06-25T01:20:50.582Z,12.40
2018-06-25T01:21:50.280Z,13.90
2018-06-25T01:22:49.819Z,14.30
2018-06-25T01:23:50.464Z,13.50
2018-06-25T01:24:49.963Z,13.90
2018-06-25T01:25:49.570Z,15.00
2018-06-25T01:26:50.437Z,14.20
2018-06-25T01:27:50.066Z,13.70
2018-06-25T01:28:49.610Z,14.50
2018-06-25T01:29:50.059Z,14.60
2018-06-25T01:30:50.562Z,15.40
2018-06-25T01:31:50.051Z,15.20
2018-06-25T01:32:49.725Z,15.40
2018-06-25T01:33:50.049Z,15.00
2018-06-25T01:34:50.398Z,15.40
2018-06-25T01:36:11.030Z,15.20
2018-06-25T01:37:54.502Z,14.90
2018-06-25T01:38:55.071Z,15.80
2018-06-25T01:39:54.874Z,15.10
2018-06-25T01:40:55.210Z,16.10
2018-06-25T01:41:54.849Z,15.00
2018-06-25T01:42:55.483Z,16.40
2018-06-25T01:43:54.898Z,16.50
2018-06-25T01:44:55.356Z,16.00
2018-06-25T01:45:54.810Z,16.70
2018-06-25T01:46:55.140Z,16.30
2018-06-25T01:47:54.494Z,15.60
2018-06-25T01:48:55.292Z,16.40
2018-06-25T01:49:54.980Z,17.60
2018-06-25T01:50:54.405Z,20.30
2018-06-25T01:51:54.844Z,21.10
2018-06-25T01:52:55.469Z,21.40
2018-06-25T01:53:54.948Z,22.70
2018-06-25T01:54:55.339Z,24.30
2018-06-25T01:55:54.677Z,27.60
2018-06-25T01:56:55.170Z,26.50
2018-06-25T01:57:54.544Z,25.70
2018-06-25T01:58:55.139Z,24.90
2018-06-25T01:59:54.732Z,26.30
2018-06-25T02:00:55.037Z,24.60
2018-06-25T02:01:54.535Z,27.00
2018-06-25T02:02:55.050Z,26.00
2018-06-25T02:03:55.365Z,22.20
2018-06-25T02:04:54.873Z,22.40
2018-06-25T02:05:54.390Z,21.50
2018-06-25T02:06:54.988Z,20.70
2018-06-25T02:07:55.330Z,20.50
2018-06-25T02:08:54.844Z,20.60
2018-06-25T02:09:54.403Z,18.30
2018-06-25T02:10:55.198Z,18.00
2018-06-25T02:11:54.737Z,17.10
2018-06-25T02:13:16.501Z,16.60
2018-06-25T02:14:17.200Z,15.50
2018-06-25T02:15:16.731Z,15.00
2018-06-25T02:16:17.141Z,15.90
2018-06-25T02:17:16.616Z,16.10
2018-06-25T02:18:17.482Z,16.80
2018-06-25T02:19:17.098Z,16.80
2018-06-25T02:20:16.436Z,15.90
2018-06-25T02:21:17.002Z,16.90
2018-06-25T02:22:16.320Z,16.60
2018-06-25T02:23:26.913Z,15.20
2018-06-25T02:24:16.390Z,16.40
2018-06-25T02:25:17.272Z,16.10
2018-06-25T02:26:16.992Z,16.80
2018-06-25T02:27:16.417Z,16.30
2018-06-25T02:28:17.010Z,16.70
2018-06-25T02:29:16.888Z,17.50
2018-06-25T02:30:17.475Z,16.80
2018-06-25T02:31:17.117Z,16.90
2018-06-25T02:32:16.708Z,16.60
2018-06-25T02:33:38.722Z,18.20
2018-06-25T02:34:39.008Z,16.60
2018-06-25T02:35:39.489Z,17.40
2018-06-25T02:36:39.115Z,17.60
2018-06-25T02:37:38.939Z,18.00
2018-06-25T02:38:39.689Z,18.20
2018-06-25T02:39:39.314Z,17.00
2018-06-25T02:40:39.032Z,17.90
2018-06-25T02:41:39.582Z,17.10
2018-06-25T02:42:39.161Z,18.70
2018-06-25T02:43:38.730Z,20.80
2018-06-25T02:45:00.456Z,20.00
2018-06-25T02:46:01.245Z,19.40
2018-06-25T02:47:01.032Z,20.00
2018-06-25T02:48:01.162Z,18.90
2018-06-25T02:49:00.586Z,19.70
2018-06-25T02:50:01.205Z,19.60
2018-06-25T02:51:01.109Z,20.00
2018-06-25T02:52:01.008Z,18.50
2018-06-25T02:53:01.435Z,19.50
2018-06-25T02:54:00.907Z,20.30
2018-06-25T02:55:01.331Z,20.00
2018-06-25T02:56:01.168Z,20.40
2018-06-25T02:57:01.066Z,20.60
2018-06-25T02:58:00.841Z,21.20
2018-06-25T02:59:25.129Z,20.30
2018-06-25T03:00:24.720Z,22.50
2018-06-25T03:01:25.335Z,34.20
2018-06-25T03:02:25.498Z,42.50
2018-06-25T03:03:25.200Z,25.50
2018-06-25T03:04:24.855Z,23.30
2018-06-25T03:05:25.204Z,23.10
2018-06-25T03:06:46.066Z,22.40
2018-06-25T03:07:46.723Z,23.20
2018-06-25T03:08:46.329Z,23.30
2018-06-25T03:09:46.865Z,27.10
2018-06-25T03:10:46.609Z,26.90
2018-06-25T03:11:46.079Z,26.50
2018-06-25T03:12:46.727Z,26.80
2018-06-25T03:13:46.186Z,26.00
2018-06-25T03:14:46.730Z,24.30
2018-06-25T03:15:46.251Z,25.00
2018-06-25T03:16:46.781Z,24.50
2018-06-25T03:17:46.212Z,24.00
2018-06-25T03:18:46.599Z,24.60
2018-06-25T03:19:47.121Z,23.80
2018-06-25T03:20:46.569Z,21.70
2018-06-25T03:21:46.070Z,22.80
2018-06-25T03:22:46.836Z,22.10
2018-06-25T03:23:46.539Z,21.60
2018-06-25T03:24:46.117Z,19.60
2018-06-25T03:25:46.652Z,21.40
2018-06-25T03:26:46.340Z,21.00
2018-06-25T03:27:47.067Z,21.00
2018-06-25T03:28:46.455Z,21.10
2018-06-25T03:29:45.974Z,20.50
2018-06-25T03:30:46.494Z,20.10
2018-06-25T03:31:46.289Z,19.30
2018-06-25T03:32:46.625Z,20.40
2018-06-25T03:33:46.089Z,20.20
2018-06-25T03:34:47.437Z,19.30
2018-06-25T03:35:46.126Z,20.50
2018-06-25T03:36:46.616Z,19.70
2018-06-25T03:37:46.162Z,19.60
2018-06-25T03:38:46.699Z,20.20
2018-06-25T03:39:46.062Z,20.70
2018-06-25T03:40:46.600Z,20.50
2018-06-25T03:41:45.891Z,19.80
2018-06-25T03:42:46.425Z,20.70
2018-06-25T03:43:46.820Z,20.50
2018-06-25T03:44:46.388Z,20.70
2018-06-25T03:45:46.895Z,19.90
2018-06-25T03:46:46.465Z,20.40
2018-06-25T03:47:45.870Z,20.30
2018-06-25T03:48:46.376Z,21.00
2018-06-25T03:49:46.703Z,20.20
2018-06-25T03:50:46.217Z,19.10
2018-06-25T03:51:47.261Z,20.40
2018-06-25T03:52:46.795Z,20.50
2018-06-25T03:53:52.089Z,19.80
2018-06-25T03:54:58.119Z,20.50
2018-06-25T03:55:59.410Z,19.50
2018-06-25T03:56:58.126Z,20.50
2018-06-25T03:57:46.808Z,19.30
2018-06-25T03:58:46.348Z,20.20
2018-06-25T04:00:08.887Z,18.90
2018-06-25T04:01:09.681Z,19.90
2018-06-25T04:02:09.441Z,19.60
2018-06-25T04:03:08.726Z,19.40
2018-06-25T04:04:15.095Z,21.20
2018-06-25T04:05:31.085Z,20.80
2018-06-25T04:06:31.503Z,20.70
2018-06-25T04:07:30.969Z,20.80
2018-06-25T04:08:31.520Z,20.80
2018-06-25T04:09:52.645Z,20.40
2018-06-25T04:10:53.195Z,19.50
2018-06-25T04:11:52.809Z,21.10
2018-06-25T04:12:53.251Z,19.90
2018-06-25T04:13:53.557Z,19.90
2018-06-25T04:14:53.186Z,19.20
2018-06-25T04:15:52.919Z,19.40
2018-06-25T04:16:53.508Z,18.70
2018-06-25T04:17:52.944Z,20.30
2018-06-25T04:18:53.503Z,18.60
2018-06-25T04:19:53.298Z,19.20
2018-06-25T04:20:52.985Z,19.30
2018-06-25T04:21:53.633Z,20.10
2018-06-25T04:22:53.397Z,20.00
2018-06-25T04:23:52.917Z,18.80
2018-06-25T04:24:53.463Z,19.20
2018-06-25T04:25:53.060Z,18.40
2018-06-25T04:26:53.726Z,19.20
2018-06-25T04:27:53.061Z,18.70
2018-06-25T04:28:53.587Z,19.50
2018-06-25T04:29:53.245Z,18.60
2018-06-25T04:31:14.610Z,17.70
2018-06-25T04:32:35.539Z,18.70
2018-06-25T04:33:35.914Z,17.50
2018-06-25T04:34:56.791Z,18.00
2018-06-25T04:35:57.317Z,18.50
2018-06-25T04:36:56.877Z,18.70
2018-06-25T04:37:57.415Z,17.60
2018-06-25T04:38:57.152Z,17.80
2018-06-25T04:39:57.633Z,17.80
2018-06-25T04:40:57.349Z,17.90
2018-06-25T04:41:56.979Z,17.60
2018-06-25T04:42:57.566Z,19.00
2018-06-25T04:43:57.259Z,18.90
2018-06-25T04:45:18.105Z,17.80
2018-06-25T04:46:39.831Z,18.50
2018-06-25T04:47:40.266Z,18.40
2018-06-25T04:48:40.832Z,18.60
2018-06-25T04:49:40.508Z,17.80
2018-06-25T04:50:40.009Z,18.40
2018-06-25T04:51:40.641Z,17.90
2018-06-25T04:52:40.318Z,18.10
2018-06-25T04:54:01.193Z,18.20
2018-06-25T04:55:01.655Z,16.90
2018-06-25T04:56:01.476Z,18.00
2018-06-25T04:57:44.402Z,17.30
2018-06-25T04:58:45.149Z,17.70
2018-06-25T04:59:44.808Z,17.60
2018-06-25T05:00:45.214Z,16.90
2018-06-25T05:01:44.917Z,18.50
2018-06-25T05:02:44.345Z,18.40
2018-06-25T05:04:06.375Z,17.60
2018-06-25T05:05:07.345Z,17.00
2018-06-25T05:06:07.212Z,16.80
2018-06-25T05:07:06.851Z,17.30
2018-06-25T05:08:06.432Z,16.70
2018-06-25T05:09:28.670Z,16.80
2018-06-25T05:10:29.212Z,15.90
2018-06-25T05:11:28.749Z,16.50
2018-06-25T05:12:29.367Z,16.90
2018-06-25T05:13:50.280Z,16.50
2018-06-25T05:14:50.655Z,16.10
2018-06-25T05:15:50.745Z,16.00
2018-06-25T05:16:50.225Z,17.40
2018-06-25T05:17:50.741Z,16.10
2018-06-25T05:18:50.322Z,15.70
2018-06-25T05:19:50.669Z,16.90
2018-06-25T05:20:50.529Z,15.90
2018-06-25T05:21:51.214Z,16.90
2018-06-25T05:22:50.571Z,15.10
2018-06-25T05:23:50.223Z,15.30
2018-06-25T05:24:52.179Z,16.50
2018-06-25T05:25:50.564Z,16.60
2018-06-25T05:26:50.222Z,16.00
2018-06-25T05:27:50.994Z,16.10
2018-06-25T05:28:50.694Z,16.10
2018-06-25T05:29:50.382Z,15.60
2018-06-25T05:30:50.945Z,15.70
2018-06-25T05:31:50.870Z,15.10
2018-06-25T05:32:50.390Z,14.80
2018-06-25T05:34:14.718Z,14.70
2018-06-25T05:35:15.394Z,14.10
2018-06-25T05:36:15.308Z,16.10
2018-06-25T05:37:15.040Z,14.90
2018-06-25T05:38:14.660Z,14.50
2018-06-25T05:39:15.151Z,14.30
2018-06-25T05:40:14.998Z,14.80
2018-06-25T05:41:14.464Z,14.00
2018-06-25T05:42:15.077Z,15.80
2018-06-25T05:43:14.585Z,14.90
2018-06-25T05:44:15.333Z,14.60
2018-06-25T05:45:14.989Z,14.20
2018-06-25T05:46:14.778Z,15.00
2018-06-25T05:47:59.416Z,15.30
2018-06-25T05:49:00.060Z,14.50
2018-06-25T05:50:21.582Z,15.10
2018-06-25T05:51:22.254Z,16.00
2018-06-25T05:52:22.089Z,14.80
2018-06-25T05:53:22.198Z,14.70
2018-06-25T05:54:21.728Z,16.30
2018-06-25T05:55:46.347Z,14.80
2018-06-25T05:56:46.594Z,14.90
2018-06-25T05:57:46.217Z,15.10
2018-06-25T05:59:09.128Z,14.10
2018-06-25T06:00:09.608Z,14.70
2018-06-25T06:01:32.908Z,13.00
2018-06-25T06:02:33.719Z,13.20
2018-06-25T06:03:33.435Z,14.60
2018-06-25T06:04:32.927Z,12.80
2018-06-25T06:05:33.769Z,13.90
2018-06-25T06:06:33.405Z,13.20
2018-06-25T06:07:33.078Z,12.40
2018-06-25T06:08:33.704Z,12.20
2018-06-25T06:09:54.716Z,12.60
2018-06-25T06:10:55.125Z,12.00
2018-06-25T06:12:18.855Z,12.50
2018-06-25T06:13:19.266Z,11.70
2018-06-25T06:14:19.685Z,11.80
2018-06-25T06:15:19.092Z,12.10
2018-06-25T06:16:20.012Z,11.60
2018-06-25T06:17:19.865Z,11.20
2018-06-25T06:18:19.348Z,10.70
2018-06-25T06:19:19.281Z,10.00
2018-06-25T06:20:18.859Z,11.20
2018-06-25T06:21:19.375Z,10.40
2018-06-25T06:22:19.865Z,10.60
2018-06-25T06:23:19.654Z,10.50
2018-06-25T06:24:19.575Z,10.90
2018-06-25T06:25:19.157Z,9.60
2018-06-25T06:26:19.206Z,9.20
2018-06-25T06:27:19.808Z,8.90
2018-06-25T06:28:19.479Z,10.00
2018-06-25T06:29:19.185Z,9.10
2018-06-25T06:30:42.886Z,9.30
2018-06-25T06:31:43.588Z,9.50
2018-06-25T06:32:43.367Z,8.90
2018-06-25T06:33:42.926Z,8.80
2018-06-25T06:34:43.468Z,8.30
2018-06-25T06:35:42.972Z,9.00
2018-06-25T06:37:07.198Z,8.50
2018-06-25T06:38:08.140Z,7.40
2018-06-25T06:39:07.529Z,8.50
2018-06-25T06:40:07.238Z,8.10
2018-06-25T06:41:06.875Z,8.00
2018-06-25T06:42:07.472Z,7.50
2018-06-25T06:43:07.182Z,7.30
2018-06-25T06:44:07.727Z,7.40
2018-06-25T06:45:07.610Z,6.80
2018-06-25T06:46:07.183Z,7.80
2018-06-25T06:47:07.740Z,7.60
2018-06-25T06:48:07.363Z,6.60
2018-06-25T06:49:31.742Z,7.80
2018-06-25T06:50:54.153Z,7.60
2018-06-25T06:51:54.909Z,7.60
2018-06-25T06:53:18.871Z,7.00
2018-06-25T06:54:19.479Z,6.50
2018-06-25T06:55:19.932Z,7.00
2018-06-25T06:56:18.617Z,7.50
2018-06-25T06:57:19.351Z,7.80
2018-06-25T06:58:19.057Z,8.30
2018-06-25T06:59:23.490Z,7.50
2018-06-25T07:00:19.987Z,7.60
2018-06-25T07:01:18.518Z,8.30
2018-06-25T07:02:42.312Z,7.60
2018-06-25T07:03:41.612Z,7.10
2018-06-25T07:04:41.780Z,7.10
2018-06-25T07:05:41.246Z,6.60
2018-06-25T07:06:40.801Z,7.40
2018-06-25T07:07:44.862Z,7.10
2018-06-25T07:08:51.171Z,6.60
2018-06-25T07:09:49.178Z,6.70
2018-06-25T07:10:41.019Z,6.60
2018-06-25T07:12:02.244Z,7.10
2018-06-25T07:13:03.056Z,6.70
2018-06-25T07:14:03.143Z,6.50
2018-06-25T07:15:02.862Z,5.70
2018-06-25T07:16:02.687Z,6.10
2018-06-25T07:17:03.820Z,6.00
2018-06-25T07:18:02.564Z,6.40
2018-06-25T07:19:02.488Z,5.80
2018-06-25T07:20:03.134Z,6.20
2018-06-25T07:21:02.795Z,5.60
2018-06-25T07:22:02.397Z,5.90
2018-06-25T07:23:06.900Z,5.80
2018-06-25T07:24:02.735Z,5.90
2018-06-25T07:25:03.190Z,5.50
2018-06-25T07:26:02.890Z,5.60
2018-06-25T07:27:02.819Z,6.00
2018-06-25T07:28:02.315Z,6.40
2018-06-25T07:29:04.177Z,6.60
2018-06-25T07:30:25.726Z,6.10
2018-06-25T07:31:25.345Z,6.80
2018-06-25T07:32:25.099Z,6.50
2018-06-25T07:33:45.987Z,6.30
2018-06-25T07:34:47.063Z,6.30
2018-06-25T07:35:47.329Z,6.00
2018-06-25T07:37:07.197Z,6.20
2018-06-25T07:38:07.889Z,6.40
2018-06-25T07:39:07.556Z,6.20
2018-06-25T07:40:08.385Z,6.30
2018-06-25T07:41:08.405Z,6.20
2018-06-25T07:42:08.465Z,6.50
2018-06-25T07:43:08.291Z,6.50
2018-06-25T07:44:07.804Z,5.80
2018-06-25T07:45:07.773Z,5.60
2018-06-25T07:46:07.641Z,6.10
2018-06-25T07:47:07.595Z,5.80
2018-06-25T07:48:08.509Z,5.70
2018-06-25T07:49:07.381Z,6.60
2018-06-25T07:50:08.224Z,6.20
2018-06-25T07:51:08.205Z,6.00
2018-06-25T07:52:07.925Z,6.20
2018-06-25T07:53:07.788Z,6.10
2018-06-25T07:54:08.662Z,6.50
2018-06-25T07:55:07.332Z,6.20
2018-06-25T07:56:07.970Z,7.20
2018-06-25T07:57:07.832Z,6.30
2018-06-25T07:58:07.820Z,6.40
2018-06-25T07:59:09.449Z,6.80
2018-06-25T08:00:29.629Z,6.10
2018-06-25T08:01:30.235Z,6.60
2018-06-25T08:02:29.692Z,6.00
2018-06-25T08:03:30.449Z,6.20
2018-06-25T08:04:30.296Z,6.20
2018-06-25T08:05:52.303Z,6.00
2018-06-25T08:06:54.416Z,6.10
2018-06-25T08:07:52.050Z,5.80
2018-06-25T08:08:53.360Z,5.80
2018-06-25T08:09:53.660Z,5.50
2018-06-25T08:10:52.493Z,5.50
2018-06-25T08:11:52.534Z,5.90
2018-06-25T08:12:52.384Z,5.30
2018-06-25T08:13:53.197Z,6.00
2018-06-25T08:14:53.291Z,5.50
2018-06-25T08:15:52.968Z,5.80
2018-06-25T08:16:53.101Z,6.30
2018-06-25T08:17:52.923Z,6.20
2018-06-25T08:18:52.849Z,6.20
2018-06-25T08:19:52.559Z,6.20
2018-06-25T08:20:52.423Z,5.80
2018-06-25T08:21:52.987Z,5.80
2018-06-25T08:22:52.542Z,6.30
2018-06-25T08:23:52.479Z,5.70
2018-06-25T08:24:52.188Z,5.90
2018-06-25T08:25:53.655Z,6.20
2018-06-25T08:27:35.647Z,5.40
2018-06-25T08:28:36.342Z,5.20
2018-06-25T08:29:36.052Z,5.70
2018-06-25T08:30:35.815Z,6.00
2018-06-25T08:31:36.210Z,5.40
2018-06-25T08:32:38.431Z,6.00
2018-06-25T08:33:36.643Z,5.90
2018-06-25T08:34:37.118Z,5.00
2018-06-25T08:35:37.960Z,5.00
2018-06-25T08:36:35.660Z,5.40
2018-06-25T08:37:36.742Z,5.20
2018-06-25T08:38:36.516Z,5.20
2018-06-25T08:39:36.987Z,5.60
2018-06-25T08:40:35.861Z,5.20
2018-06-25T08:41:58.310Z,6.00
2018-06-25T08:42:59.168Z,4.30
2018-06-25T08:43:57.977Z,4.10
2018-06-25T08:44:59.148Z,4.60
2018-06-25T08:45:58.815Z,4.60
2018-06-25T08:46:59.584Z,4.60
2018-06-25T08:47:58.196Z,4.50
2018-06-25T08:48:59.046Z,4.40
2018-06-25T08:49:58.659Z,4.20
2018-06-25T08:50:58.275Z,4.20
2018-06-25T08:52:01.190Z,4.40
2018-06-25T08:52:57.922Z,4.50
2018-06-25T08:53:58.962Z,4.00
2018-06-25T08:54:58.879Z,4.40
2018-06-25T08:55:58.691Z,4.40
2018-06-25T08:56:58.797Z,4.40
2018-06-25T08:57:58.502Z,4.20
2018-06-25T08:58:58.300Z,4.20
2018-06-25T08:59:57.849Z,4.20
2018-06-25T09:00:58.801Z,3.70
2018-06-25T09:01:58.796Z,4.70
2018-06-25T09:02:58.451Z,5.60
2018-06-25T09:03:58.208Z,4.50
2018-06-25T09:04:58.304Z,4.90
2018-06-25T09:05:58.203Z,4.50
2018-06-25T09:06:58.812Z,6.30
2018-06-25T09:07:58.279Z,6.60
2018-06-25T09:08:58.087Z,6.20
2018-06-25T09:09:58.260Z,5.40
2018-06-25T09:10:59.420Z,6.90
2018-06-25T09:11:57.994Z,10.00
2018-06-25T09:13:21.329Z,5.90
2018-06-25T09:14:24.203Z,4.20
2018-06-25T09:15:36.126Z,4.70
2018-06-25T09:16:23.955Z,4.20
2018-06-25T09:17:20.814Z,5.10
2018-06-25T09:18:20.824Z,5.00
2018-06-25T09:19:22.422Z,5.30
2018-06-25T09:20:22.654Z,4.70
2018-06-25T09:21:21.297Z,4.60
2018-06-25T09:22:20.847Z,5.10
2018-06-25T09:23:21.330Z,5.40
2018-06-25T09:24:46.373Z,7.60
2018-06-25T09:25:47.300Z,5.90
2018-06-25T09:26:46.677Z,5.70
2018-06-25T09:27:45.362Z,5.30
2018-06-25T09:28:47.075Z,6.20
2018-06-25T09:29:46.414Z,5.30
2018-06-25T09:30:46.107Z,5.50
2018-06-25T09:31:46.028Z,5.70
2018-06-25T09:32:45.789Z,5.50
2018-06-25T09:33:45.401Z,4.90
2018-06-25T09:34:46.136Z,5.00
2018-06-25T09:35:45.872Z,4.70
2018-06-25T09:36:45.619Z,4.50
2018-06-25T09:37:46.196Z,4.70
2018-06-25T09:38:45.703Z,5.10
2018-06-25T09:39:45.250Z,4.60
2018-06-25T09:40:46.084Z,4.60
2018-06-25T09:41:46.206Z,4.10
2018-06-25T09:42:45.271Z,4.30
2018-06-25T09:43:45.938Z,5.50
2018-06-25T09:44:45.712Z,5.40
2018-06-25T09:45:45.409Z,5.00
2018-06-25T09:46:46.139Z,4.90
2018-06-25T09:47:46.073Z,5.00
2018-06-25T09:48:45.808Z,5.20
2018-06-25T09:49:46.305Z,5.10
2018-06-25T09:50:46.093Z,5.40
2018-06-25T09:51:45.714Z,4.90
2018-06-25T09:53:08.871Z,5.00
2018-06-25T09:54:09.473Z,4.90
2018-06-25T09:55:09.526Z,5.20
2018-06-25T09:56:09.353Z,5.20
2018-06-25T09:57:09.252Z,5.60
2018-06-25T09:58:09.930Z,6.10
2018-06-25T09:59:09.434Z,5.20
2018-06-25T10:00:10.325Z,5.40
2018-06-25T10:01:09.046Z,5.70
2018-06-25T10:02:31.080Z,5.90
2018-06-25T10:03:32.130Z,5.00
2018-06-25T10:04:32.098Z,5.50
2018-06-25T10:05:32.047Z,5.40
2018-06-25T10:06:32.042Z,5.00
2018-06-25T10:07:32.017Z,5.30
2018-06-25T10:08:31.592Z,5.10
2018-06-25T10:09:31.199Z,5.00
2018-06-25T10:10:32.033Z,5.10
2018-06-25T10:11:31.943Z,4.10
2018-06-25T10:12:31.509Z,5.30
2018-06-25T10:13:31.955Z,4.40
2018-06-25T10:14:31.852Z,5.00
2018-06-25T10:15:52.718Z,4.90
2018-06-25T10:17:17.253Z,3.80
2018-06-25T10:18:17.903Z,3.70
2018-06-25T10:19:17.627Z,3.50
2018-06-25T10:20:38.955Z,3.10
2018-06-25T10:21:39.468Z,3.10
2018-06-25T10:22:38.976Z,3.00
2018-06-25T10:23:39.567Z,2.80
2018-06-25T10:24:39.067Z,3.60
2018-06-25T10:26:03.446Z,3.10
2018-06-25T10:27:04.785Z,3.20
2018-06-25T10:28:03.611Z,3.20
2018-06-25T10:29:03.553Z,3.30
2018-06-25T10:30:03.596Z,3.30
2018-06-25T10:31:03.200Z,2.90
2018-06-25T10:32:03.833Z,2.80
2018-06-25T10:33:03.403Z,2.90
2018-06-25T10:34:04.479Z,3.20
2018-06-25T10:35:03.968Z,2.90
2018-06-25T10:36:03.763Z,2.80
2018-06-25T10:37:03.123Z,2.80
2018-06-25T10:38:03.585Z,2.80
2018-06-25T10:39:26.870Z,3.00
2018-06-25T10:40:27.847Z,2.50
2018-06-25T10:41:27.931Z,2.90
2018-06-25T10:42:27.588Z,2.80
2018-06-25T10:43:50.259Z,2.70
2018-06-25T10:44:50.691Z,2.80
2018-06-25T10:45:51.118Z,2.90
2018-06-25T10:46:50.665Z,2.50
2018-06-25T10:47:51.142Z,2.60
2018-06-25T10:48:50.874Z,2.60
2018-06-25T10:49:50.785Z,2.70
2018-06-25T10:50:50.559Z,2.70
2018-06-25T10:51:51.657Z,2.70
2018-06-25T10:52:51.491Z,2.40
2018-06-25T10:53:51.357Z,2.20
2018-06-25T10:55:12.674Z,2.50
2018-06-25T10:56:12.374Z,3.00
2018-06-25T10:57:13.417Z,2.40
2018-06-25T10:58:36.923Z,2.70
2018-06-25T10:59:37.417Z,2.80
2018-06-25T11:00:59.625Z,2.50
2018-06-25T11:01:59.757Z,2.60
2018-06-25T11:02:59.579Z,2.80
2018-06-25T11:04:00.079Z,2.50
2018-06-25T11:04:59.613Z,2.40
2018-06-25T11:06:46.948Z,2.70
2018-06-25T11:07:47.712Z,2.50
2018-06-25T11:08:47.223Z,2.60
2018-06-25T11:09:47.857Z,3.30
2018-06-25T11:10:47.682Z,2.70
2018-06-25T11:11:47.589Z,2.80
2018-06-25T11:12:47.308Z,2.90
2018-06-25T11:14:30.491Z,2.50
2018-06-25T11:15:31.093Z,2.90
2018-06-25T11:16:54.576Z,3.00
2018-06-25T11:17:55.350Z,3.30
2018-06-25T11:18:55.933Z,3.00
2018-06-25T11:19:54.459Z,3.10
2018-06-25T11:20:54.940Z,3.00
2018-06-25T11:21:55.386Z,2.80
2018-06-25T11:22:56.100Z,3.30
2018-06-25T11:23:54.980Z,3.00
2018-06-25T11:24:54.534Z,2.80
2018-06-25T11:25:55.468Z,2.60
2018-06-25T11:27:41.886Z,2.60
2018-06-25T11:28:42.485Z,2.60
2018-06-25T11:29:42.114Z,2.30
2018-06-25T11:30:42.108Z,2.40
2018-06-25T11:31:42.993Z,2.30
2018-06-25T11:32:42.923Z,2.40
2018-06-25T11:33:42.761Z,2.50
2018-06-25T11:34:42.749Z,2.60
2018-06-25T11:35:42.535Z,2.60
2018-06-25T11:36:42.088Z,2.70
2018-06-25T11:38:05.356Z,2.40
2018-06-25T11:39:29.808Z,2.20
2018-06-25T11:40:52.363Z,2.60
2018-06-25T11:41:52.857Z,2.90
2018-06-25T11:43:39.507Z,2.50
2018-06-25T11:44:40.116Z,2.20
2018-06-25T11:45:39.800Z,2.90
2018-06-25T11:46:40.745Z,2.50
2018-06-25T11:47:40.312Z,2.70
2018-06-25T11:48:40.075Z,2.40
2018-06-25T11:49:40.117Z,2.70
2018-06-25T11:50:40.156Z,2.60
2018-06-25T11:51:39.953Z,2.30
2018-06-25T11:52:39.620Z,2.40
2018-06-25T11:53:40.363Z,2.50
2018-06-25T11:54:39.810Z,2.60
2018-06-25T11:55:40.252Z,2.60
2018-06-25T11:56:40.740Z,2.60
2018-06-25T11:57:40.695Z,3.00
2018-06-25T11:58:40.646Z,2.50
2018-06-25T11:59:41.226Z,2.60
2018-06-25T12:00:39.926Z,2.50
2018-06-25T12:02:01.607Z,2.60
2018-06-25T12:03:01.489Z,2.40
2018-06-25T12:04:01.030Z,2.50
2018-06-25T12:05:01.677Z,2.90
2018-06-25T12:06:02.725Z,2.40
2018-06-25T12:07:01.346Z,2.40
2018-06-25T12:08:02.095Z,2.60
2018-06-25T12:09:02.021Z,2.40
2018-06-25T12:10:01.525Z,2.60
2018-06-25T12:11:01.084Z,2.70
2018-06-25T12:12:25.291Z,2.20
2018-06-25T12:13:27.440Z,2.40
2018-06-25T12:14:26.298Z,2.30
2018-06-25T12:15:26.024Z,2.50
2018-06-25T12:16:48.998Z,2.00
2018-06-25T12:17:49.859Z,2.60
2018-06-25T12:19:13.753Z,2.70
2018-06-25T12:20:13.790Z,2.70
2018-06-25T12:21:13.667Z,2.80
2018-06-25T12:22:14.218Z,2.30
2018-06-25T12:23:59.918Z,2.20
2018-06-25T12:25:00.985Z,2.40
2018-06-25T12:25:59.549Z,3.00
2018-06-25T12:27:00.648Z,2.80
2018-06-25T12:28:00.594Z,2.80
2018-06-25T12:29:00.720Z,2.80
2018-06-25T12:30:01.254Z,2.50
2018-06-25T12:31:00.298Z,2.40
2018-06-25T12:32:00.183Z,2.60
2018-06-25T12:33:00.072Z,2.60
2018-06-25T12:34:00.432Z,2.30
2018-06-25T12:35:00.802Z,2.40
2018-06-25T12:36:00.501Z,2.60
2018-06-25T12:37:00.488Z,2.60
2018-06-25T12:38:24.147Z,2.60
2018-06-25T12:39:26.711Z,2.70
2018-06-25T12:40:24.100Z,2.60
2018-06-25T12:41:24.571Z,2.90
2018-06-25T12:42:24.509Z,2.40
2018-06-25T12:43:24.100Z,2.50
2018-06-25T12:44:24.177Z,2.70
2018-06-25T12:45:23.809Z,2.70
2018-06-25T12:46:24.470Z,2.40
2018-06-25T12:47:48.580Z,2.70
2018-06-25T12:48:49.499Z,2.60
2018-06-25T12:49:49.440Z,2.70
2018-06-25T12:50:49.181Z,2.50
2018-06-25T12:51:48.877Z,4.20
2018-06-25T12:52:48.743Z,3.10
2018-06-25T12:53:48.494Z,2.60
2018-06-25T12:55:28.087Z,2.50
2018-06-25T12:56:28.833Z,2.70
2018-06-25T12:57:28.469Z,2.60
2018-06-25T12:58:53.206Z,2.90
2018-06-25T12:59:54.109Z,2.50
2018-06-25T13:00:52.957Z,2.70
2018-06-25T13:01:54.031Z,2.80
2018-06-25T13:02:54.565Z,3.00
2018-06-25T13:03:54.154Z,2.50
2018-06-25T13:04:52.852Z,3.20
2018-06-25T13:05:53.681Z,5.60
2018-06-25T13:06:53.487Z,3.20
2018-06-25T13:07:53.132Z,3.10
2018-06-25T13:09:18.971Z,2.80
2018-06-25T13:10:18.945Z,3.00
2018-06-25T13:11:43.338Z,3.50
2018-06-25T13:12:43.534Z,2.60
2018-06-25T13:13:43.377Z,2.80
2018-06-25T13:14:43.771Z,2.60
2018-06-25T13:15:42.297Z,2.70
2018-06-25T13:16:43.382Z,2.70
2018-06-25T13:17:43.309Z,2.60
2018-06-25T13:18:43.516Z,2.60
2018-06-25T13:19:43.007Z,2.60
2018-06-25T13:20:43.523Z,2.90
2018-06-25T13:22:07.701Z,2.60
2018-06-25T13:23:07.422Z,2.40
2018-06-25T13:24:07.349Z,2.90
2018-06-25T13:25:07.334Z,2.20
2018-06-25T13:26:06.877Z,2.30
2018-06-25T13:27:06.542Z,2.20
2018-06-25T13:28:07.247Z,2.10
2018-06-25T13:29:30.976Z,2.40
2018-06-25T13:31:04.002Z,2.70
2018-06-25T13:32:04.760Z,2.70
2018-06-25T13:33:04.377Z,2.60
2018-06-25T13:34:04.214Z,2.70
2018-06-25T13:35:04.661Z,2.90
2018-06-25T13:36:25.788Z,2.80
2018-06-25T13:37:32.300Z,2.30
2018-06-25T13:38:26.056Z,2.30
2018-06-25T13:39:31.016Z,2.40
2018-06-25T13:40:26.628Z,2.70
2018-06-25T13:41:27.023Z,2.10
2018-06-25T13:42:26.656Z,2.20
2018-06-25T13:43:26.276Z,2.70
2018-06-25T13:44:26.134Z,2.70
2018-06-25T13:45:26.902Z,2.10